Caliente, CA

4:18 AM PDT on November 01, 2014 (GMT -0700)
RAWS DEMOCRAT CA US | Change Station
CLOSE
Current Station
Personal Weather Station
Location: Bodfish, CA
Elevation: 2363 ft
Nearby Weather Stations

Elev 2363 ft 35.53 °N, 118.63 °W | Updated 53 minutes ago

Partly Cloudy
Partly Cloudy
46 °F
Feels Like 46 °F
N
0
Wind Variable Wind from North
Gusts 3.0 mph

Today
High -- | Low -- °F
--% Chance of Precip.
Yesterday
High -- | Low -- °F
Precip. -- in
7:15 AM 5:58 PM
Waxing Gibbous, 65% visible
Pressure 29.83 in
Visibility 10.0 miles
Clouds Few 5000 ft
Windchill 46 °F
Dew Point 45 °F
Humidity 96%
Rainfall 0.49 in
Snow Depth Not available.
UV 0 out of 12
Pollen .50 out of 12
Air Quality Not available.
Flu Activity Not available.
METAR KTSP 011115Z AUTO 30007KT 10SM FEW050 05/03 A2983 RMK AO2

More Conditions Fewer Conditions

Pressure 29.83 in
Visibility 10.0 miles
Clouds Few 5000 ft
Windchill 46 °F
Dew Point 45 °F
Humidity 96%
Rainfall 0.49 in
Snow Depth Not available.
UV 0 out of 12
Pollen .50 out of 12
Air Quality Not available.
Flu Activity Not available.
METAR KTSP 011115Z AUTO 30007KT 10SM FEW050 05/03 A2983 RMK AO2

More Conditions Fewer Conditions

10-Day Weather Forecast

Almanac

Astronomy

Nov. 01, 2014 Rise Set
Actual Time
Civil Twilight
Nautical Twilight
Astronomical Twilight
Moon
Length of Visible Light
Length of Day
Tomorrow will be .
, % of the Moon is Illuminated

Today's Extremes

State Highs State Lows

Community

WunderPhotos

Upload Photos

1,766,878 photos uploaded!

WunderBlogs® & News

Nearby

Air Quality

  Air Quality AQ Index Pollutant
Not available.

Snow Depth

Station Depth Elevation

Earthquake Activity

City Distance Mag. Time & Date
Minimum magnitude displayed is 2.5.

Coastal Water Temperatures

Place Temperature

Nearby Weather Stations